sensor_id;sensor_type;location;lat;lon;timestamp;P1;durP1;ratioP1;P2;durP2;ratioP2
7473;SDS011;3778;42.572;23.426;2022-09-09T00:01:54;12.57;;;9.60;;
7473;SDS011;3778;42.572;23.426;2022-09-09T00:04:30;11.73;;;10.17;;
7473;SDS011;3778;42.572;23.426;2022-09-09T00:07:00;13.73;;;10.30;;
7473;SDS011;3778;42.572;23.426;2022-09-09T00:09:35;13.20;;;10.37;;
7473;SDS011;3778;42.572;23.426;2022-09-09T00:12:10;12.90;;;9.83;;
7473;SDS011;3778;42.572;23.426;2022-09-09T00:14:41;15.70;;;10.73;;
7473;SDS011;3778;42.572;23.426;2022-09-09T00:17:24;15.67;;;10.37;;
7473;SDS011;3778;42.572;23.426;2022-09-09T00:20:00;17.37;;;11.40;;
7473;SDS011;3778;42.572;23.426;2022-09-09T00:22:32;13.77;;;10.17;;
7473;SDS011;3778;42.572;23.426;2022-09-09T00:25:03;15.47;;;10.20;;
7473;SDS011;3778;42.572;23.426;2022-09-09T00:27:39;12.23;;;9.23;;
7473;SDS011;3778;42.572;23.426;2022-09-09T00:30:14;22.97;;;10.43;;
7473;SDS011;3778;42.572;23.426;2022-09-09T00:32:47;14.13;;;10.63;;
7473;SDS011;3778;42.572;23.426;2022-09-09T00:35:16;12.43;;;10.20;;
7473;SDS011;3778;42.572;23.426;2022-09-09T00:37:48;12.03;;;10.47;;
7473;SDS011;3778;42.572;23.426;2022-09-09T00:40:22;12.87;;;10.63;;
7473;SDS011;3778;42.572;23.426;2022-09-09T00:42:54;18.07;;;10.97;;
7473;SDS011;3778;42.572;23.426;2022-09-09T00:45:37;13.57;;;11.17;;
7473;SDS011;3778;42.572;23.426;2022-09-09T00:48:19;13.67;;;11.27;;
7473;SDS011;3778;42.572;23.426;2022-09-09T00:50:52;15.47;;;10.73;;
7473;SDS011;3778;42.572;23.426;2022-09-09T00:53:28;16.70;;;11.13;;
7473;SDS011;3778;42.572;23.426;2022-09-09T00:56:06;16.80;;;11.00;;
7473;SDS011;3778;42.572;23.426;2022-09-09T00:58:38;14.13;;;10.60;;
7473;SDS011;3778;42.572;23.426;2022-09-09T01:01:07;15.30;;;11.13;;
7473;SDS011;3778;42.572;23.426;2022-09-09T01:03:38;13.03;;;10.70;;
7473;SDS011;3778;42.572;23.426;2022-09-09T01:06:14;15.77;;;12.03;;
7473;SDS011;3778;42.572;23.426;2022-09-09T01:08:48;15.03;;;11.73;;
7473;SDS011;3778;42.572;23.426;2022-09-09T01:11:36;15.80;;;12.63;;
7473;SDS011;3778;42.572;23.426;2022-09-09T01:14:13;13.50;;;10.23;;
7473;SDS011;3778;42.572;23.426;2022-09-09T01:16:46;12.73;;;10.30;;
7473;SDS011;3778;42.572;23.426;2022-09-09T01:19:16;14.00;;;10.83;;
7473;SDS011;3778;42.572;23.426;2022-09-09T01:21:53;13.23;;;11.33;;
7473;SDS011;3778;42.572;23.426;2022-09-09T01:24:29;13.77;;;10.30;;
7473;SDS011;3778;42.572;23.426;2022-09-09T01:27:06;16.17;;;10.87;;
7473;SDS011;3778;42.572;23.426;2022-09-09T01:29:35;13.60;;;10.27;;
7473;SDS011;3778;42.572;23.426;2022-09-09T01:32:03;14.10;;;11.23;;
7473;SDS011;3778;42.572;23.426;2022-09-09T01:35:06;19.30;;;11.23;;
7473;SDS011;3778;42.572;23.426;2022-09-09T01:37:37;13.77;;;11.27;;
7473;SDS011;3778;42.572;23.426;2022-09-09T01:40:04;12.87;;;11.47;;
7473;SDS011;3778;42.572;23.426;2022-09-09T01:42:33;13.50;;;11.10;;
7473;SDS011;3778;42.572;23.426;2022-09-09T01:45:00;20.50;;;11.93;;
7473;SDS011;3778;42.572;23.426;2022-09-09T01:47:27;16.37;;;12.03;;
7473;SDS011;3778;42.572;23.426;2022-09-09T01:49:53;15.50;;;11.70;;
7473;SDS011;3778;42.572;23.426;2022-09-09T01:52:20;12.63;;;11.00;;
7473;SDS011;3778;42.572;23.426;2022-09-09T01:54:47;19.00;;;11.53;;
7473;SDS011;3778;42.572;23.426;2022-09-09T01:57:15;17.43;;;12.70;;
7473;SDS011;3778;42.572;23.426;2022-09-09T01:59:50;14.93;;;11.20;;
7473;SDS011;3778;42.572;23.426;2022-09-09T02:02:27;14.63;;;12.60;;
7473;SDS011;3778;42.572;23.426;2022-09-09T02:05:01;18.83;;;11.73;;
7473;SDS011;3778;42.572;23.426;2022-09-09T02:07:38;14.03;;;11.83;;
7473;SDS011;3778;42.572;23.426;2022-09-09T02:10:09;14.10;;;11.47;;
7473;SDS011;3778;42.572;23.426;2022-09-09T02:12:40;17.20;;;12.63;;
7473;SDS011;3778;42.572;23.426;2022-09-09T02:15:13;14.83;;;11.80;;
7473;SDS011;3778;42.572;23.426;2022-09-09T02:17:44;16.27;;;12.50;;
7473;SDS011;3778;42.572;23.426;2022-09-09T02:20:14;15.80;;;11.23;;
7473;SDS011;3778;42.572;23.426;2022-09-09T02:22:42;13.23;;;11.23;;
7473;SDS011;3778;42.572;23.426;2022-09-09T02:25:12;13.37;;;11.43;;
7473;SDS011;3778;42.572;23.426;2022-09-09T02:27:43;15.53;;;10.97;;
7473;SDS011;3778;42.572;23.426;2022-09-09T02:30:15;17.17;;;10.50;;
7473;SDS011;3778;42.572;23.426;2022-09-09T02:32:42;17.80;;;12.00;;
7473;SDS011;3778;42.572;23.426;2022-09-09T02:35:13;15.73;;;11.10;;
7473;SDS011;3778;42.572;23.426;2022-09-09T02:37:44;14.67;;;11.47;;
7473;SDS011;3778;42.572;23.426;2022-09-09T02:40:12;13.57;;;11.03;;
7473;SDS011;3778;42.572;23.426;2022-09-09T02:42:41;12.43;;;10.73;;
7473;SDS011;3778;42.572;23.426;2022-09-09T02:45:09;20.33;;;11.20;;
7473;SDS011;3778;42.572;23.426;2022-09-09T02:47:40;14.57;;;10.83;;
7473;SDS011;3778;42.572;23.426;2022-09-09T02:50:15;14.03;;;11.00;;
7473;SDS011;3778;42.572;23.426;2022-09-09T02:52:50;14.33;;;10.87;;
7473;SDS011;3778;42.572;23.426;2022-09-09T02:55:28;14.20;;;10.50;;
7473;SDS011;3778;42.572;23.426;2022-09-09T02:58:04;12.23;;;10.60;;
7473;SDS011;3778;42.572;23.426;2022-09-09T03:00:33;19.23;;;10.10;;
7473;SDS011;3778;42.572;23.426;2022-09-09T03:03:03;12.53;;;10.77;;
7473;SDS011;3778;42.572;23.426;2022-09-09T03:05:30;12.40;;;9.97;;
7473;SDS011;3778;42.572;23.426;2022-09-09T03:07:57;12.60;;;9.80;;
7473;SDS011;3778;42.572;23.426;2022-09-09T03:10:24;14.70;;;10.77;;
7473;SDS011;3778;42.572;23.426;2022-09-09T03:12:51;13.20;;;10.80;;
7473;SDS011;3778;42.572;23.426;2022-09-09T03:15:17;14.23;;;10.03;;
7473;SDS011;3778;42.572;23.426;2022-09-09T03:17:44;13.13;;;11.07;;
7473;SDS011;3778;42.572;23.426;2022-09-09T03:20:12;17.53;;;11.57;;
7473;SDS011;3778;42.572;23.426;2022-09-09T03:22:39;15.77;;;10.43;;
7473;SDS011;3778;42.572;23.426;2022-09-09T03:25:06;17.10;;;11.63;;
7473;SDS011;3778;42.572;23.426;2022-09-09T03:27:34;12.47;;;10.53;;
7473;SDS011;3778;42.572;23.426;2022-09-09T03:30:00;13.93;;;10.47;;
7473;SDS011;3778;42.572;23.426;2022-09-09T03:32:28;12.67;;;10.57;;
7473;SDS011;3778;42.572;23.426;2022-09-09T03:34:56;13.70;;;10.63;;
7473;SDS011;3778;42.572;23.426;2022-09-09T03:37:24;14.43;;;9.87;;
7473;SDS011;3778;42.572;23.426;2022-09-09T03:39:52;12.37;;;9.43;;
7473;SDS011;3778;42.572;23.426;2022-09-09T03:42:19;15.87;;;11.00;;
7473;SDS011;3778;42.572;23.426;2022-09-09T03:44:46;13.27;;;11.27;;
7473;SDS011;3778;42.572;23.426;2022-09-09T03:47:15;13.77;;;11.27;;
7473;SDS011;3778;42.572;23.426;2022-09-09T03:49:43;15.03;;;10.83;;
7473;SDS011;3778;42.572;23.426;2022-09-09T03:52:10;13.73;;;10.80;;
7473;SDS011;3778;42.572;23.426;2022-09-09T03:54:39;13.13;;;11.30;;
7473;SDS011;3778;42.572;23.426;2022-09-09T03:57:07;13.70;;;11.20;;
7473;SDS011;3778;42.572;23.426;2022-09-09T03:59:35;14.50;;;11.33;;
7473;SDS011;3778;42.572;23.426;2022-09-09T04:02:02;13.27;;;11.20;;
7473;SDS011;3778;42.572;23.426;2022-09-09T04:04:29;13.27;;;10.53;;
7473;SDS011;3778;42.572;23.426;2022-09-09T04:06:55;19.20;;;11.30;;
7473;SDS011;3778;42.572;23.426;2022-09-09T04:09:22;15.17;;;11.37;;
7473;SDS011;3778;42.572;23.426;2022-09-09T04:11:50;17.27;;;11.73;;
7473;SDS011;3778;42.572;23.426;2022-09-09T04:14:18;12.90;;;10.97;;
7473;SDS011;3778;42.572;23.426;2022-09-09T04:16:45;13.10;;;11.70;;
7473;SDS011;3778;42.572;23.426;2022-09-09T04:19:12;16.40;;;12.27;;
7473;SDS011;3778;42.572;23.426;2022-09-09T04:21:39;13.50;;;11.00;;
7473;SDS011;3778;42.572;23.426;2022-09-09T04:24:07;13.43;;;10.90;;
7473;SDS011;3778;42.572;23.426;2022-09-09T04:26:35;14.93;;;10.97;;
7473;SDS011;3778;42.572;23.426;2022-09-09T04:29:04;14.90;;;11.33;;
7473;SDS011;3778;42.572;23.426;2022-09-09T04:31:32;14.27;;;11.33;;
7473;SDS011;3778;42.572;23.426;2022-09-09T04:33:58;14.73;;;10.17;;
7473;SDS011;3778;42.572;23.426;2022-09-09T04:36:30;13.03;;;11.10;;
7473;SDS011;3778;42.572;23.426;2022-09-09T04:38:57;12.20;;;10.40;;
7473;SDS011;3778;42.572;23.426;2022-09-09T04:41:23;12.40;;;10.37;;
7473;SDS011;3778;42.572;23.426;2022-09-09T04:43:50;13.23;;;10.40;;
7473;SDS011;3778;42.572;23.426;2022-09-09T04:46:19;16.03;;;10.47;;
7473;SDS011;3778;42.572;23.426;2022-09-09T04:48:48;17.83;;;11.33;;
7473;SDS011;3778;42.572;23.426;2022-09-09T04:51:14;13.37;;;10.10;;
7473;SDS011;3778;42.572;23.426;2022-09-09T04:53:41;11.77;;;9.63;;
7473;SDS011;3778;42.572;23.426;2022-09-09T04:56:09;13.23;;;9.47;;
7473;SDS011;3778;42.572;23.426;2022-09-09T04:58:38;17.23;;;10.80;;
7473;SDS011;3778;42.572;23.426;2022-09-09T05:01:07;14.90;;;9.93;;
7473;SDS011;3778;42.572;23.426;2022-09-09T05:03:37;13.90;;;10.30;;
7473;SDS011;3778;42.572;23.426;2022-09-09T05:06:05;11.37;;;9.20;;
7473;SDS011;3778;42.572;23.426;2022-09-09T05:08:33;12.70;;;9.83;;
7473;SDS011;3778;42.572;23.426;2022-09-09T05:11:00;13.90;;;9.67;;
7473;SDS011;3778;42.572;23.426;2022-09-09T05:13:27;12.70;;;10.33;;
7473;SDS011;3778;42.572;23.426;2022-09-09T05:15:56;12.93;;;8.97;;
7473;SDS011;3778;42.572;23.426;2022-09-09T05:18:22;12.30;;;9.23;;
7473;SDS011;3778;42.572;23.426;2022-09-09T05:20:50;17.37;;;9.30;;
7473;SDS011;3778;42.572;23.426;2022-09-09T05:23:17;13.80;;;9.50;;
7473;SDS011;3778;42.572;23.426;2022-09-09T05:25:53;10.93;;;8.97;;
7473;SDS011;3778;42.572;23.426;2022-09-09T05:28:22;12.10;;;9.10;;
7473;SDS011;3778;42.572;23.426;2022-09-09T05:30:54;14.70;;;8.80;;
7473;SDS011;3778;42.572;23.426;2022-09-09T05:33:23;11.37;;;8.60;;
7473;SDS011;3778;42.572;23.426;2022-09-09T05:35:59;9.90;;;8.80;;
7473;SDS011;3778;42.572;23.426;2022-09-09T05:38:28;12.10;;;10.00;;
7473;SDS011;3778;42.572;23.426;2022-09-09T05:40:56;13.57;;;9.63;;
7473;SDS011;3778;42.572;23.426;2022-09-09T05:43:23;12.03;;;9.17;;
7473;SDS011;3778;42.572;23.426;2022-09-09T05:45:58;14.53;;;8.57;;
7473;SDS011;3778;42.572;23.426;2022-09-09T05:48:27;15.10;;;8.57;;
7473;SDS011;3778;42.572;23.426;2022-09-09T05:50:55;15.63;;;8.87;;
7473;SDS011;3778;42.572;23.426;2022-09-09T05:53:24;13.07;;;8.67;;
7473;SDS011;3778;42.572;23.426;2022-09-09T05:55:57;11.20;;;7.77;;
7473;SDS011;3778;42.572;23.426;2022-09-09T05:58:24;12.70;;;8.83;;
7473;SDS011;3778;42.572;23.426;2022-09-09T06:00:51;10.93;;;7.87;;
7473;SDS011;3778;42.572;23.426;2022-09-09T06:03:20;11.07;;;8.77;;
7473;SDS011;3778;42.572;23.426;2022-09-09T06:05:56;11.17;;;8.77;;
7473;SDS011;3778;42.572;23.426;2022-09-09T06:08:25;12.07;;;8.50;;
7473;SDS011;3778;42.572;23.426;2022-09-09T06:10:52;12.17;;;8.13;;
7473;SDS011;3778;42.572;23.426;2022-09-09T06:13:18;13.40;;;7.97;;
7473;SDS011;3778;42.572;23.426;2022-09-09T06:15:49;9.37;;;7.50;;
7473;SDS011;3778;42.572;23.426;2022-09-09T06:18:17;11.17;;;7.97;;
7473;SDS011;3778;42.572;23.426;2022-09-09T06:20:52;10.10;;;8.43;;
7473;SDS011;3778;42.572;23.426;2022-09-09T06:23:20;10.87;;;7.83;;
7473;SDS011;3778;42.572;23.426;2022-09-09T06:25:48;9.57;;;8.20;;
7473;SDS011;3778;42.572;23.426;2022-09-09T06:28:15;10.47;;;7.93;;
7473;SDS011;3778;42.572;23.426;2022-09-09T06:30:42;10.33;;;8.63;;
7473;SDS011;3778;42.572;23.426;2022-09-09T06:33:09;10.87;;;7.70;;
7473;SDS011;3778;42.572;23.426;2022-09-09T06:35:36;10.90;;;7.93;;
7473;SDS011;3778;42.572;23.426;2022-09-09T06:38:03;9.73;;;7.73;;
7473;SDS011;3778;42.572;23.426;2022-09-09T06:40:30;12.43;;;8.80;;
7473;SDS011;3778;42.572;23.426;2022-09-09T06:43:00;11.17;;;8.63;;
7473;SDS011;3778;42.572;23.426;2022-09-09T06:45:27;8.97;;;7.63;;
7473;SDS011;3778;42.572;23.426;2022-09-09T06:47:54;10.77;;;7.23;;
7473;SDS011;3778;42.572;23.426;2022-09-09T06:50:21;11.60;;;7.83;;
7473;SDS011;3778;42.572;23.426;2022-09-09T06:52:48;10.23;;;7.53;;
7473;SDS011;3778;42.572;23.426;2022-09-09T06:55:15;9.97;;;7.80;;
7473;SDS011;3778;42.572;23.426;2022-09-09T06:57:43;8.27;;;7.47;;
7473;SDS011;3778;42.572;23.426;2022-09-09T07:00:12;9.50;;;8.00;;
7473;SDS011;3778;42.572;23.426;2022-09-09T07:02:39;8.10;;;7.20;;
7473;SDS011;3778;42.572;23.426;2022-09-09T07:05:06;9.30;;;7.60;;
7473;SDS011;3778;42.572;23.426;2022-09-09T07:07:34;8.97;;;7.37;;
7473;SDS011;3778;42.572;23.426;2022-09-09T07:10:01;12.00;;;7.50;;
7473;SDS011;3778;42.572;23.426;2022-09-09T07:12:29;10.43;;;7.30;;
7473;SDS011;3778;42.572;23.426;2022-09-09T07:14:56;9.70;;;6.97;;
7473;SDS011;3778;42.572;23.426;2022-09-09T07:17:24;10.40;;;7.70;;
7473;SDS011;3778;42.572;23.426;2022-09-09T07:19:51;12.23;;;7.20;;
7473;SDS011;3778;42.572;23.426;2022-09-09T07:22:17;9.03;;;7.27;;
7473;SDS011;3778;42.572;23.426;2022-09-09T07:24:45;7.87;;;6.83;;
7473;SDS011;3778;42.572;23.426;2022-09-09T07:27:12;7.43;;;6.63;;
7473;SDS011;3778;42.572;23.426;2022-09-09T07:29:38;9.43;;;7.07;;
7473;SDS011;3778;42.572;23.426;2022-09-09T07:32:05;8.80;;;6.60;;
7473;SDS011;3778;42.572;23.426;2022-09-09T07:34:33;6.97;;;6.27;;
7473;SDS011;3778;42.572;23.426;2022-09-09T07:37:00;9.80;;;6.37;;
7473;SDS011;3778;42.572;23.426;2022-09-09T07:39:26;8.70;;;6.40;;
7473;SDS011;3778;42.572;23.426;2022-09-09T07:41:53;6.97;;;6.23;;
7473;SDS011;3778;42.572;23.426;2022-09-09T07:44:21;7.67;;;6.70;;
7473;SDS011;3778;42.572;23.426;2022-09-09T07:46:49;7.03;;;6.20;;
7473;SDS011;3778;42.572;23.426;2022-09-09T07:49:16;7.43;;;6.37;;
7473;SDS011;3778;42.572;23.426;2022-09-09T07:51:46;7.53;;;6.73;;
7473;SDS011;3778;42.572;23.426;2022-09-09T07:54:16;8.27;;;6.43;;
7473;SDS011;3778;42.572;23.426;2022-09-09T07:56:45;9.57;;;6.33;;
7473;SDS011;3778;42.572;23.426;2022-09-09T07:59:14;7.63;;;6.53;;
7473;SDS011;3778;42.572;23.426;2022-09-09T08:01:43;9.07;;;6.33;;
7473;SDS011;3778;42.572;23.426;2022-09-09T08:04:12;12.80;;;6.70;;
7473;SDS011;3778;42.572;23.426;2022-09-09T08:06:42;12.17;;;7.33;;
7473;SDS011;3778;42.572;23.426;2022-09-09T08:09:12;9.40;;;6.10;;
7473;SDS011;3778;42.572;23.426;2022-09-09T08:11:40;11.67;;;6.23;;
7473;SDS011;3778;42.572;23.426;2022-09-09T08:14:07;6.63;;;5.77;;
7473;SDS011;3778;42.572;23.426;2022-09-09T08:16:36;8.53;;;5.43;;
7473;SDS011;3778;42.572;23.426;2022-09-09T08:19:05;7.83;;;5.77;;
7473;SDS011;3778;42.572;23.426;2022-09-09T08:21:33;13.20;;;6.40;;
7473;SDS011;3778;42.572;23.426;2022-09-09T08:24:03;8.97;;;5.93;;
7473;SDS011;3778;42.572;23.426;2022-09-09T08:26:31;11.13;;;6.47;;
7473;SDS011;3778;42.572;23.426;2022-09-09T08:28:59;9.27;;;6.20;;
7473;SDS011;3778;42.572;23.426;2022-09-09T08:31:28;8.40;;;5.60;;
7473;SDS011;3778;42.572;23.426;2022-09-09T08:33:57;6.03;;;5.43;;
7473;SDS011;3778;42.572;23.426;2022-09-09T08:36:26;9.33;;;5.67;;
7473;SDS011;3778;42.572;23.426;2022-09-09T08:38:55;8.03;;;5.63;;
7473;SDS011;3778;42.572;23.426;2022-09-09T08:41:37;7.37;;;6.03;;
7473;SDS011;3778;42.572;23.426;2022-09-09T08:44:14;9.87;;;5.57;;
7473;SDS011;3778;42.572;23.426;2022-09-09T08:46:51;9.03;;;6.07;;
7473;SDS011;3778;42.572;23.426;2022-09-09T08:49:30;9.67;;;6.03;;
7473;SDS011;3778;42.572;23.426;2022-09-09T08:52:16;10.63;;;6.10;;
7473;SDS011;3778;42.572;23.426;2022-09-09T08:54:48;11.77;;;6.50;;
7473;SDS011;3778;42.572;23.426;2022-09-09T08:57:23;9.40;;;5.93;;
7473;SDS011;3778;42.572;23.426;2022-09-09T08:59:54;11.60;;;6.43;;
7473;SDS011;3778;42.572;23.426;2022-09-09T09:02:23;7.87;;;6.03;;
7473;SDS011;3778;42.572;23.426;2022-09-09T09:05:00;8.17;;;6.20;;
7473;SDS011;3778;42.572;23.426;2022-09-09T09:07:50;10.07;;;6.80;;
7473;SDS011;3778;42.572;23.426;2022-09-09T09:10:30;7.00;;;5.97;;
7473;SDS011;3778;42.572;23.426;2022-09-09T09:15:41;9.67;;;5.97;;
7473;SDS011;3778;42.572;23.426;2022-09-09T09:18:10;7.53;;;6.27;;
7473;SDS011;3778;42.572;23.426;2022-09-09T09:20:42;9.10;;;6.00;;
7473;SDS011;3778;42.572;23.426;2022-09-09T09:23:20;8.17;;;6.27;;
7473;SDS011;3778;42.572;23.426;2022-09-09T09:25:49;14.33;;;6.73;;
7473;SDS011;3778;42.572;23.426;2022-09-09T09:28:20;12.50;;;6.30;;
7473;SDS011;3778;42.572;23.426;2022-09-09T09:30:51;8.20;;;6.13;;
7473;SDS011;3778;42.572;23.426;2022-09-09T09:33:23;7.33;;;6.40;;
7473;SDS011;3778;42.572;23.426;2022-09-09T09:35:57;9.53;;;6.37;;
7473;SDS011;3778;42.572;23.426;2022-09-09T09:38:25;8.40;;;6.10;;
7473;SDS011;3778;42.572;23.426;2022-09-09T09:40:54;9.80;;;6.30;;
7473;SDS011;3778;42.572;23.426;2022-09-09T09:43:26;15.20;;;7.50;;
7473;SDS011;3778;42.572;23.426;2022-09-09T09:45:54;13.40;;;6.43;;
7473;SDS011;3778;42.572;23.426;2022-09-09T09:48:23;8.33;;;6.13;;
7473;SDS011;3778;42.572;23.426;2022-09-09T09:50:51;11.33;;;6.90;;
7473;SDS011;3778;42.572;23.426;2022-09-09T09:53:22;9.47;;;6.73;;
7473;SDS011;3778;42.572;23.426;2022-09-09T09:55:53;10.13;;;7.67;;
7473;SDS011;3778;42.572;23.426;2022-09-09T09:58:25;7.33;;;6.53;;
7473;SDS011;3778;42.572;23.426;2022-09-09T10:00:55;9.50;;;5.90;;
7473;SDS011;3778;42.572;23.426;2022-09-09T10:03:23;12.33;;;6.73;;
7473;SDS011;3778;42.572;23.426;2022-09-09T10:05:52;11.33;;;6.67;;
7473;SDS011;3778;42.572;23.426;2022-09-09T10:08:21;9.83;;;7.10;;
7473;SDS011;3778;42.572;23.426;2022-09-09T10:11:04;12.10;;;7.27;;
7473;SDS011;3778;42.572;23.426;2022-09-09T10:13:49;10.93;;;6.67;;
7473;SDS011;3778;42.572;23.426;2022-09-09T10:16:30;13.03;;;6.40;;
7473;SDS011;3778;42.572;23.426;2022-09-09T10:19:05;10.75;;;6.60;;
7473;SDS011;3778;42.572;23.426;2022-09-09T10:21:44;14.02;;;6.45;;
7473;SDS011;3778;42.572;23.426;2022-09-09T10:24:37;8.88;;;6.85;;
7473;SDS011;3778;42.572;23.426;2022-09-09T10:27:16;15.93;;;6.37;;
7473;SDS011;3778;42.572;23.426;2022-09-09T10:29:52;16.70;;;7.55;;
7473;SDS011;3778;42.572;23.426;2022-09-09T10:32:38;12.73;;;6.45;;
7473;SDS011;3778;42.572;23.426;2022-09-09T10:35:12;14.50;;;7.33;;
7473;SDS011;3778;42.572;23.426;2022-09-09T10:37:51;8.73;;;6.13;;
7473;SDS011;3778;42.572;23.426;2022-09-09T10:40:31;11.83;;;6.83;;
7473;SDS011;3778;42.572;23.426;2022-09-09T10:43:12;9.90;;;6.60;;
7473;SDS011;3778;42.572;23.426;2022-09-09T10:45:52;14.20;;;6.87;;
7473;SDS011;3778;42.572;23.426;2022-09-09T10:48:31;16.17;;;7.13;;
7473;SDS011;3778;42.572;23.426;2022-09-09T10:51:14;10.43;;;7.07;;
7473;SDS011;3778;42.572;23.426;2022-09-09T10:53:52;11.73;;;7.13;;
7473;SDS011;3778;42.572;23.426;2022-09-09T10:56:28;11.17;;;7.30;;
7473;SDS011;3778;42.572;23.426;2022-09-09T10:58:58;11.00;;;7.10;;
7473;SDS011;3778;42.572;23.426;2022-09-09T11:01:31;6.63;;;6.00;;
7473;SDS011;3778;42.572;23.426;2022-09-09T11:04:05;10.67;;;6.67;;
7473;SDS011;3778;42.572;23.426;2022-09-09T11:06:41;13.43;;;6.80;;
7473;SDS011;3778;42.572;23.426;2022-09-09T11:09:13;9.63;;;6.80;;
7473;SDS011;3778;42.572;23.426;2022-09-09T11:11:44;7.87;;;6.63;;
7473;SDS011;3778;42.572;23.426;2022-09-09T11:14:19;12.50;;;6.90;;
7473;SDS011;3778;42.572;23.426;2022-09-09T11:16:53;11.33;;;6.57;;
7473;SDS011;3778;42.572;23.426;2022-09-09T11:19:26;10.30;;;6.50;;
7473;SDS011;3778;42.572;23.426;2022-09-09T11:21:59;12.60;;;7.00;;
7473;SDS011;3778;42.572;23.426;2022-09-09T11:24:29;14.50;;;7.10;;
7473;SDS011;3778;42.572;23.426;2022-09-09T11:27:02;8.47;;;7.23;;
7473;SDS011;3778;42.572;23.426;2022-09-09T11:29:45;12.30;;;6.77;;
7473;SDS011;3778;42.572;23.426;2022-09-09T11:32:33;13.20;;;6.20;;
7473;SDS011;3778;42.572;23.426;2022-09-09T11:35:18;14.17;;;7.03;;
7473;SDS011;3778;42.572;23.426;2022-09-09T11:37:59;11.80;;;7.17;;
7473;SDS011;3778;42.572;23.426;2022-09-09T11:40:39;12.90;;;7.10;;
7473;SDS011;3778;42.572;23.426;2022-09-09T11:43:09;11.40;;;6.80;;
7473;SDS011;3778;42.572;23.426;2022-09-09T11:45:39;12.50;;;6.60;;
7473;SDS011;3778;42.572;23.426;2022-09-09T11:48:22;11.07;;;6.77;;
7473;SDS011;3778;42.572;23.426;2022-09-09T11:50:58;11.57;;;6.87;;
7473;SDS011;3778;42.572;23.426;2022-09-09T11:53:28;13.27;;;7.07;;
7473;SDS011;3778;42.572;23.426;2022-09-09T11:56:02;12.20;;;6.57;;
7473;SDS011;3778;42.572;23.426;2022-09-09T11:58:33;11.77;;;6.43;;
7473;SDS011;3778;42.572;23.426;2022-09-09T12:01:15;13.10;;;7.80;;
7473;SDS011;3778;42.572;23.426;2022-09-09T12:03:59;16.27;;;7.45;;
7473;SDS011;3778;42.572;23.426;2022-09-09T12:06:41;12.23;;;7.00;;
7473;SDS011;3778;42.572;23.426;2022-09-09T12:09:15;15.63;;;8.27;;
7473;SDS011;3778;42.572;23.426;2022-09-09T12:11:45;11.27;;;6.78;;
7473;SDS011;3778;42.572;23.426;2022-09-09T12:14:19;10.40;;;7.05;;
7473;SDS011;3778;42.572;23.426;2022-09-09T12:17:08;14.30;;;6.47;;
7473;SDS011;3778;42.572;23.426;2022-09-09T12:19:37;30.55;;;8.02;;
7473;SDS011;3778;42.572;23.426;2022-09-09T12:22:05;12.03;;;6.43;;
7473;SDS011;3778;42.572;23.426;2022-09-09T12:24:41;9.90;;;6.87;;
7473;SDS011;3778;42.572;23.426;2022-09-09T12:27:14;8.90;;;6.50;;
7473;SDS011;3778;42.572;23.426;2022-09-09T12:29:49;15.90;;;8.00;;
7473;SDS011;3778;42.572;23.426;2022-09-09T12:32:27;12.07;;;7.33;;
7473;SDS011;3778;42.572;23.426;2022-09-09T12:34:55;12.60;;;6.93;;
7473;SDS011;3778;42.572;23.426;2022-09-09T12:37:28;11.53;;;7.03;;
7473;SDS011;3778;42.572;23.426;2022-09-09T12:39:59;13.43;;;6.97;;
7473;SDS011;3778;42.572;23.426;2022-09-09T12:42:29;15.87;;;7.83;;
7473;SDS011;3778;42.572;23.426;2022-09-09T12:45:24;12.07;;;7.43;;
7473;SDS011;3778;42.572;23.426;2022-09-09T12:47:57;13.50;;;7.37;;
7473;SDS011;3778;42.572;23.426;2022-09-09T12:50:51;17.77;;;7.90;;
7473;SDS011;3778;42.572;23.426;2022-09-09T12:53:21;12.90;;;7.67;;
7473;SDS011;3778;42.572;23.426;2022-09-09T12:55:51;10.53;;;7.27;;
7473;SDS011;3778;42.572;23.426;2022-09-09T12:58:20;20.10;;;8.20;;
7473;SDS011;3778;42.572;23.426;2022-09-09T13:00:50;11.70;;;7.20;;
7473;SDS011;3778;42.572;23.426;2022-09-09T13:03:20;13.43;;;8.10;;
7473;SDS011;3778;42.572;23.426;2022-09-09T13:05:47;12.47;;;7.33;;
7473;SDS011;3778;42.572;23.426;2022-09-09T13:08:16;15.15;;;6.88;;
7473;SDS011;3778;42.572;23.426;2022-09-09T13:10:46;35.03;;;8.15;;
7473;SDS011;3778;42.572;23.426;2022-09-09T13:13:18;16.48;;;7.90;;
7473;SDS011;3778;42.572;23.426;2022-09-09T13:15:50;12.05;;;7.38;;
7473;SDS011;3778;42.572;23.426;2022-09-09T13:18:21;17.00;;;7.53;;
7473;SDS011;3778;42.572;23.426;2022-09-09T13:20:50;9.82;;;6.70;;
7473;SDS011;3778;42.572;23.426;2022-09-09T13:23:19;16.20;;;7.22;;
7473;SDS011;3778;42.572;23.426;2022-09-09T13:25:53;16.27;;;7.43;;
7473;SDS011;3778;42.572;23.426;2022-09-09T13:28:22;39.97;;;9.35;;
7473;SDS011;3778;42.572;23.426;2022-09-09T13:30:57;10.63;;;7.20;;
7473;SDS011;3778;42.572;23.426;2022-09-09T13:33:29;9.98;;;6.05;;
7473;SDS011;3778;42.572;23.426;2022-09-09T13:35:58;10.70;;;6.57;;
7473;SDS011;3778;42.572;23.426;2022-09-09T13:38:30;10.20;;;5.90;;
7473;SDS011;3778;42.572;23.426;2022-09-09T13:41:02;8.10;;;5.73;;
7473;SDS011;3778;42.572;23.426;2022-09-09T13:43:31;12.60;;;5.70;;
7473;SDS011;3778;42.572;23.426;2022-09-09T13:46:03;14.40;;;6.77;;
7473;SDS011;3778;42.572;23.426;2022-09-09T13:48:31;8.90;;;6.60;;
7473;SDS011;3778;42.572;23.426;2022-09-09T13:50:59;11.15;;;6.70;;
7473;SDS011;3778;42.572;23.426;2022-09-09T13:53:29;12.02;;;5.70;;
7473;SDS011;3778;42.572;23.426;2022-09-09T13:55:56;14.83;;;6.50;;
7473;SDS011;3778;42.572;23.426;2022-09-09T13:58:24;8.65;;;6.32;;
7473;SDS011;3778;42.572;23.426;2022-09-09T14:00:51;11.50;;;6.05;;
7473;SDS011;3778;42.572;23.426;2022-09-09T14:03:19;15.15;;;6.35;;
7473;SDS011;3778;42.572;23.426;2022-09-09T14:05:46;12.57;;;6.47;;
7473;SDS011;3778;42.572;23.426;2022-09-09T14:08:19;10.32;;;6.10;;
7473;SDS011;3778;42.572;23.426;2022-09-09T14:10:52;10.20;;;6.68;;
7473;SDS011;3778;42.572;23.426;2022-09-09T14:13:22;10.40;;;6.63;;
7473;SDS011;3778;42.572;23.426;2022-09-09T14:15:49;8.20;;;6.03;;
7473;SDS011;3778;42.572;23.426;2022-09-09T14:18:16;13.73;;;6.40;;
7473;SDS011;3778;42.572;23.426;2022-09-09T14:20:43;12.88;;;6.55;;
7473;SDS011;3778;42.572;23.426;2022-09-09T14:23:10;9.18;;;6.53;;
7473;SDS011;3778;42.572;23.426;2022-09-09T14:25:41;9.32;;;6.03;;
7473;SDS011;3778;42.572;23.426;2022-09-09T14:28:10;14.80;;;6.05;;
7473;SDS011;3778;42.572;23.426;2022-09-09T14:30:38;14.45;;;6.30;;
7473;SDS011;3778;42.572;23.426;2022-09-09T14:33:06;9.25;;;6.13;;
7473;SDS011;3778;42.572;23.426;2022-09-09T14:35:33;11.77;;;6.60;;
7473;SDS011;3778;42.572;23.426;2022-09-09T14:38:01;8.60;;;5.47;;
7473;SDS011;3778;42.572;23.426;2022-09-09T14:40:29;8.75;;;5.97;;
7473;SDS011;3778;42.572;23.426;2022-09-09T14:42:55;12.55;;;6.35;;
7473;SDS011;3778;42.572;23.426;2022-09-09T14:45:24;19.98;;;6.47;;
7473;SDS011;3778;42.572;23.426;2022-09-09T14:47:52;9.05;;;5.32;;
7473;SDS011;3778;42.572;23.426;2022-09-09T14:50:19;15.05;;;6.60;;
7473;SDS011;3778;42.572;23.426;2022-09-09T14:52:47;10.65;;;5.43;;
7473;SDS011;3778;42.572;23.426;2022-09-09T14:55:14;14.05;;;5.43;;
7473;SDS011;3778;42.572;23.426;2022-09-09T14:57:41;11.23;;;5.75;;
7473;SDS011;3778;42.572;23.426;2022-09-09T15:00:09;11.77;;;4.97;;
7473;SDS011;3778;42.572;23.426;2022-09-09T15:02:38;8.32;;;5.22;;
7473;SDS011;3778;42.572;23.426;2022-09-09T15:05:05;12.85;;;5.50;;
7473;SDS011;3778;42.572;23.426;2022-09-09T15:07:33;11.25;;;5.30;;
7473;SDS011;3778;42.572;23.426;2022-09-09T15:10:01;8.70;;;5.03;;
7473;SDS011;3778;42.572;23.426;2022-09-09T15:12:28;10.45;;;5.78;;